createdAt,value
2023-01-29T00:01:48.837Z,7.23
2023-01-29T00:04:15.297Z,7.57
2023-01-29T00:06:41.717Z,7.93
2023-01-29T00:09:08.122Z,7.73
2023-01-29T00:11:35.206Z,8.57
2023-01-29T00:14:01.688Z,8.77
2023-01-29T00:16:28.120Z,8.27
2023-01-29T00:18:54.587Z,7.57
2023-01-29T00:21:22.278Z,7.27
2023-01-29T00:23:49.405Z,7.93
2023-01-29T00:26:16.831Z,8.07
2023-01-29T00:28:43.472Z,8.20
2023-01-29T00:31:18.280Z,8.37
2023-01-29T00:33:44.784Z,8.27
2023-01-29T00:36:12.424Z,8.60
2023-01-29T00:38:39.453Z,8.70
2023-01-29T00:41:29.473Z,8.27
2023-01-29T00:44:14.462Z,8.43
2023-01-29T00:46:41.159Z,8.53
2023-01-29T00:49:07.835Z,9.20
2023-01-29T00:51:34.548Z,8.63
2023-01-29T00:54:01.209Z,8.87
2023-01-29T00:56:28.903Z,9.07
2023-01-29T00:58:55.825Z,9.10
2023-01-29T01:01:42.957Z,10.10
2023-01-29T01:04:10.736Z,9.30
2023-01-29T01:06:38.188Z,8.73
2023-01-29T01:09:23.695Z,9.00
2023-01-29T01:11:50.253Z,9.80
2023-01-29T01:14:16.678Z,10.23
2023-01-29T01:16:44.970Z,10.27
2023-01-29T01:19:11.525Z,9.43
2023-01-29T01:21:37.955Z,9.90
2023-01-29T01:24:05.873Z,9.27
2023-01-29T01:26:32.878Z,10.10
2023-01-29T01:28:59.472Z,9.23
2023-01-29T01:31:26.036Z,10.60
2023-01-29T01:33:54.254Z,10.87
2023-01-29T01:36:20.752Z,9.97
2023-01-29T01:38:47.268Z,9.67
2023-01-29T01:41:19.271Z,9.77
2023-01-29T01:43:54.596Z,10.60
2023-01-29T01:46:21.805Z,9.40
2023-01-29T01:48:52.868Z,9.50
2023-01-29T01:51:20.585Z,10.03
2023-01-29T01:53:54.099Z,10.00
2023-01-29T01:56:28.394Z,10.10
2023-01-29T01:58:56.877Z,9.57
2023-01-29T02:01:30.755Z,10.00
2023-01-29T02:04:23.839Z,10.10
2023-01-29T02:07:09.766Z,10.83
2023-01-29T02:09:40.892Z,9.60
2023-01-29T02:12:09.775Z,10.50
2023-01-29T02:14:39.468Z,10.83
2023-01-29T02:17:11.964Z,10.57
2023-01-29T02:20:24.459Z,10.73
2023-01-29T02:23:12.767Z,10.57
2023-01-29T02:26:06.582Z,10.20
2023-01-29T02:28:48.911Z,10.23
2023-01-29T02:31:29.570Z,10.07
2023-01-29T02:34:21.558Z,10.40
2023-01-29T02:37:05.205Z,10.30
2023-01-29T02:39:38.418Z,10.50
2023-01-29T02:42:27.359Z,9.90
2023-01-29T02:45:12.815Z,10.43
2023-01-29T02:47:48.986Z,10.57
2023-01-29T02:50:20.719Z,10.57
2023-01-29T02:53:08.582Z,10.90
2023-01-29T02:55:49.889Z,10.73
2023-01-29T02:58:29.330Z,11.10
2023-01-29T03:01:00.478Z,9.90
2023-01-29T03:03:31.771Z,10.67
2023-01-29T03:06:07.750Z,10.73
2023-01-29T03:08:43.043Z,10.97
2023-01-29T03:11:14.261Z,11.10
2023-01-29T03:13:45.602Z,10.70
2023-01-29T03:16:40.757Z,10.73
2023-01-29T03:19:21.196Z,10.03
2023-01-29T03:21:51.611Z,9.77
2023-01-29T03:24:48.231Z,10.00
2023-01-29T03:27:33.895Z,10.50
2023-01-29T03:30:19.443Z,10.47
2023-01-29T03:32:47.016Z,10.10
2023-01-29T03:35:14.449Z,10.43
2023-01-29T03:37:46.810Z,10.07
2023-01-29T03:40:13.905Z,10.83
2023-01-29T03:43:11.024Z,10.33
2023-01-29T03:45:46.584Z,10.83
2023-01-29T03:48:33.965Z,10.03
2023-01-29T03:51:16.011Z,10.60
2023-01-29T03:54:11.558Z,9.70
2023-01-29T03:56:51.550Z,10.03
2023-01-29T03:59:26.129Z,10.67
2023-01-29T04:01:53.792Z,10.80
2023-01-29T04:04:33.164Z,11.20
2023-01-29T04:07:15.381Z,10.63
2023-01-29T04:09:57.790Z,10.63
2023-01-29T04:12:30.843Z,11.37
2023-01-29T04:15:00.094Z,11.63
2023-01-29T04:17:34.855Z,11.20
2023-01-29T04:20:01.538Z,10.67
2023-01-29T04:22:36.414Z,11.53
2023-01-29T04:25:08.337Z,11.10
2023-01-29T04:27:45.694Z,10.57
2023-01-29T04:30:35.840Z,11.67
2023-01-29T04:33:20.667Z,10.07
2023-01-29T04:36:08.275Z,11.23
2023-01-29T04:38:56.466Z,10.40
2023-01-29T04:41:38.010Z,10.93
2023-01-29T04:44:26.499Z,11.27
2023-01-29T04:46:59.751Z,11.27
2023-01-29T04:49:42.484Z,10.47
2023-01-29T04:52:43.666Z,10.90
2023-01-29T04:55:19.517Z,10.37
2023-01-29T04:57:57.111Z,10.33
2023-01-29T05:00:28.726Z,10.60
2023-01-29T05:02:56.562Z,10.60
2023-01-29T05:05:23.023Z,10.47
2023-01-29T05:07:49.717Z,11.70
2023-01-29T05:10:18.777Z,11.07
2023-01-29T05:12:49.735Z,10.87
2023-01-29T05:15:20.576Z,10.90
2023-01-29T05:17:47.006Z,12.10
2023-01-29T05:20:13.728Z,10.60
2023-01-29T05:22:41.654Z,11.43
2023-01-29T05:25:23.865Z,9.67
2023-01-29T05:28:10.309Z,10.60
2023-01-29T05:30:37.943Z,10.80
2023-01-29T05:33:05.483Z,10.03
2023-01-29T05:35:32.092Z,10.30
2023-01-29T05:37:58.745Z,9.70
2023-01-29T05:40:25.546Z,10.53
2023-01-29T05:42:52.171Z,9.97
2023-01-29T05:45:18.811Z,10.10
2023-01-29T05:47:45.813Z,10.17
2023-01-29T05:50:13.043Z,10.97
2023-01-29T05:52:40.162Z,11.07
2023-01-29T05:55:08.099Z,10.27
2023-01-29T05:57:34.536Z,10.13
2023-01-29T06:00:00.963Z,10.43
2023-01-29T06:02:30.719Z,9.67
2023-01-29T06:04:57.395Z,10.67
2023-01-29T06:07:23.808Z,9.80
2023-01-29T06:09:50.247Z,11.53
2023-01-29T06:12:16.674Z,11.43
2023-01-29T06:14:43.078Z,10.40
2023-01-29T06:17:09.483Z,11.17
2023-01-29T06:19:35.892Z,10.90
2023-01-29T06:22:02.307Z,10.97
2023-01-29T06:24:28.756Z,11.27
2023-01-29T06:26:55.223Z,10.70
2023-01-29T06:29:21.626Z,10.93
2023-01-29T06:31:48.112Z,10.63
2023-01-29T06:34:14.577Z,12.10
2023-01-29T06:36:41.802Z,11.60
2023-01-29T06:39:08.202Z,10.57
2023-01-29T06:41:34.693Z,11.47
2023-01-29T06:44:01.163Z,10.87
2023-01-29T06:46:27.627Z,10.87
2023-01-29T06:48:54.041Z,10.67
2023-01-29T06:51:22.888Z,10.90
2023-01-29T06:53:49.358Z,11.33
2023-01-29T06:56:15.831Z,10.27
2023-01-29T06:58:43.480Z,10.97
2023-01-29T07:01:15.529Z,12.07
2023-01-29T07:03:52.008Z,11.57
2023-01-29T07:06:18.958Z,11.17
2023-01-29T07:08:45.590Z,11.50
2023-01-29T07:11:12.551Z,10.23
2023-01-29T07:13:38.987Z,10.87
2023-01-29T07:16:06.721Z,10.67
2023-01-29T07:18:33.195Z,11.17
2023-01-29T07:20:59.616Z,11.37
2023-01-29T07:23:26.080Z,11.27
2023-01-29T07:25:52.511Z,11.30
2023-01-29T07:28:20.360Z,11.17
2023-01-29T07:30:46.871Z,11.33
2023-01-29T07:33:13.278Z,11.07
2023-01-29T07:35:41.950Z,11.00
2023-01-29T07:38:09.609Z,10.80
2023-01-29T07:40:36.457Z,10.77
2023-01-29T07:43:08.150Z,10.83
2023-01-29T07:45:35.993Z,11.70
2023-01-29T07:48:04.193Z,11.33
2023-01-29T07:50:31.184Z,10.80
2023-01-29T07:52:57.644Z,10.87
2023-01-29T07:55:24.480Z,11.77
2023-01-29T07:58:02.239Z,11.97
2023-01-29T08:00:30.236Z,12.00
2023-01-29T08:03:07.463Z,11.80
2023-01-29T08:05:34.063Z,11.87
2023-01-29T08:08:06.854Z,10.87
2023-01-29T08:10:35.129Z,11.03
2023-01-29T08:13:02.144Z,11.30
2023-01-29T08:15:28.746Z,11.60
2023-01-29T08:20:41.596Z,12.50
2023-01-29T08:23:12.702Z,12.03
2023-01-29T08:25:39.182Z,11.37
2023-01-29T08:28:05.817Z,12.47
2023-01-29T08:30:33.595Z,11.43
2023-01-29T08:33:00.444Z,11.57
2023-01-29T08:35:27.462Z,11.77
2023-01-29T08:38:02.006Z,11.77
2023-01-29T08:40:31.767Z,11.70
2023-01-29T08:43:02.001Z,12.20
2023-01-29T08:45:30.074Z,11.60
2023-01-29T08:47:56.485Z,11.47
2023-01-29T08:50:22.890Z,11.93
2023-01-29T08:52:49.303Z,12.00
2023-01-29T08:55:16.025Z,11.63
2023-01-29T08:57:42.661Z,14.07
2023-01-29T09:00:10.595Z,11.00
2023-01-29T09:02:37.804Z,11.10
2023-01-29T09:05:04.673Z,14.03
2023-01-29T09:07:31.119Z,13.20
2023-01-29T09:09:57.519Z,10.67
2023-01-29T09:12:24.021Z,12.20
2023-01-29T09:14:50.455Z,11.37
2023-01-29T09:17:16.958Z,11.63
2023-01-29T09:19:43.375Z,10.57
2023-01-29T09:22:11.838Z,11.77
2023-01-29T09:24:38.494Z,11.87
2023-01-29T09:27:05.360Z,11.33
2023-01-29T09:29:33.527Z,11.50
2023-01-29T09:32:01.171Z,10.63
2023-01-29T09:34:27.564Z,11.07
2023-01-29T09:36:53.988Z,11.43
2023-01-29T09:39:20.399Z,11.33
2023-01-29T09:42:06.608Z,10.53
2023-01-29T09:45:00.296Z,10.53
2023-01-29T09:47:27.780Z,10.50
2023-01-29T09:50:05.656Z,12.07
2023-01-29T09:52:45.691Z,11.23
2023-01-29T09:55:27.652Z,10.97
2023-01-29T09:58:06.075Z,10.87
2023-01-29T10:00:54.102Z,11.00
2023-01-29T10:03:47.340Z,10.87
2023-01-29T10:06:36.745Z,12.00
2023-01-29T10:09:28.962Z,11.67
2023-01-29T10:12:20.175Z,9.80
2023-01-29T10:14:57.206Z,11.17
2023-01-29T10:18:10.028Z,11.30
2023-01-29T10:20:45.460Z,10.97
2023-01-29T10:23:23.372Z,11.23
2023-01-29T10:25:50.057Z,10.83
2023-01-29T10:28:46.280Z,12.13
2023-01-29T10:31:17.801Z,10.97
2023-01-29T10:34:01.985Z,10.97
2023-01-29T10:36:49.021Z,11.37
2023-01-29T10:39:20.767Z,11.23
2023-01-29T10:42:14.695Z,12.10
2023-01-29T10:45:05.753Z,11.87
2023-01-29T10:48:09.325Z,11.50
2023-01-29T10:50:49.094Z,10.57
2023-01-29T10:53:24.588Z,11.30
2023-01-29T10:56:10.736Z,11.47
2023-01-29T10:58:55.737Z,12.67
2023-01-29T11:01:22.260Z,13.17
2023-01-29T11:04:03.433Z,12.53
2023-01-29T11:06:31.295Z,13.50
2023-01-29T11:09:48.919Z,16.10
2023-01-29T11:12:23.724Z,14.43
2023-01-29T11:14:53.134Z,11.33
2023-01-29T11:17:23.209Z,10.63
2023-01-29T11:19:51.628Z,12.07
2023-01-29T11:22:20.263Z,11.50
2023-01-29T11:24:47.609Z,9.97
2023-01-29T11:27:25.934Z,11.13
2023-01-29T11:29:53.329Z,11.63
2023-01-29T11:32:22.731Z,11.37
2023-01-29T11:35:02.228Z,10.67
2023-01-29T11:37:37.489Z,10.10
2023-01-29T11:40:19.437Z,9.80
2023-01-29T11:42:46.872Z,11.13
2023-01-29T11:45:33.863Z,10.70
2023-01-29T11:48:00.628Z,10.17
2023-01-29T11:50:29.556Z,10.03
2023-01-29T11:52:56.072Z,10.33
2023-01-29T11:55:24.256Z,9.33
2023-01-29T11:57:54.100Z,10.20
2023-01-29T12:00:23.863Z,9.67
2023-01-29T12:03:15.654Z,10.37
2023-01-29T12:05:53.779Z,8.70
2023-01-29T12:08:22.853Z,9.17
2023-01-29T12:10:49.655Z,10.43
2023-01-29T12:13:25.234Z,9.23
2023-01-29T12:16:06.531Z,9.23
2023-01-29T12:18:38.337Z,9.17
2023-01-29T12:21:10.294Z,9.23
2023-01-29T12:23:53.093Z,9.67
2023-01-29T12:26:27.797Z,11.23
2023-01-29T12:29:51.718Z,8.97
2023-01-29T12:32:37.988Z,9.10
2023-01-29T12:35:16.228Z,9.10
2023-01-29T12:37:51.032Z,9.93
2023-01-29T12:40:18.979Z,8.63
2023-01-29T12:42:48.832Z,9.47
2023-01-29T12:45:21.262Z,9.37
2023-01-29T12:47:51.941Z,9.43
2023-01-29T12:50:22.445Z,8.87
2023-01-29T12:53:02.511Z,9.13
2023-01-29T12:55:34.770Z,8.70
2023-01-29T12:58:06.167Z,9.70
2023-01-29T13:00:34.630Z,9.13
2023-01-29T13:03:10.137Z,8.67
2023-01-29T13:05:44.592Z,9.33
2023-01-29T13:08:17.632Z,8.30
2023-01-29T13:10:48.681Z,8.83
2023-01-29T13:13:27.821Z,8.53
2023-01-29T13:15:55.559Z,8.73
2023-01-29T13:18:44.011Z,9.17
2023-01-29T13:21:14.399Z,9.23
2023-01-29T13:23:44.971Z,9.23
2023-01-29T13:26:13.831Z,11.07
2023-01-29T13:28:40.601Z,9.10
2023-01-29T13:31:26.818Z,10.60
2023-01-29T13:34:07.134Z,10.47
2023-01-29T13:36:34.168Z,10.07
2023-01-29T13:39:04.522Z,10.20
2023-01-29T13:41:33.482Z,10.40
2023-01-29T13:44:00.074Z,9.97
2023-01-29T13:46:26.536Z,9.77
2023-01-29T13:48:55.134Z,9.53
2023-01-29T13:51:22.876Z,9.30
2023-01-29T13:53:58.586Z,9.63
2023-01-29T13:56:33.909Z,10.17
2023-01-29T13:59:02.181Z,9.07
2023-01-29T14:01:46.813Z,8.80
2023-01-29T14:04:19.297Z,9.50
2023-01-29T14:06:48.300Z,9.07
2023-01-29T14:09:36.844Z,9.87
2023-01-29T14:12:05.025Z,10.10
2023-01-29T14:15:21.517Z,9.07
2023-01-29T14:17:56.183Z,9.13
2023-01-29T14:20:39.085Z,9.13
2023-01-29T14:23:24.283Z,9.20
2023-01-29T14:25:50.820Z,8.63
2023-01-29T14:28:23.036Z,9.20
2023-01-29T14:30:50.188Z,8.40
2023-01-29T14:33:37.845Z,8.43
2023-01-29T14:36:07.159Z,9.00
2023-01-29T14:38:33.941Z,8.77
2023-01-29T14:41:07.748Z,8.63
2023-01-29T14:43:34.250Z,8.70
2023-01-29T14:46:35.912Z,8.17
2023-01-29T14:49:02.882Z,8.37
2023-01-29T14:51:34.726Z,8.60
2023-01-29T14:54:23.120Z,9.10
2023-01-29T14:56:59.511Z,8.53
2023-01-29T14:59:37.908Z,8.37
2023-01-29T15:02:14.437Z,9.03
2023-01-29T15:04:49.548Z,8.93
2023-01-29T15:07:23.714Z,8.07
2023-01-29T15:10:21.443Z,7.77
2023-01-29T15:12:52.699Z,7.70
2023-01-29T15:15:44.992Z,7.80
2023-01-29T15:18:42.487Z,8.67
2023-01-29T15:21:13.876Z,8.13
2023-01-29T15:23:44.195Z,8.17
2023-01-29T15:26:22.258Z,9.13
2023-01-29T15:29:03.097Z,8.80
2023-01-29T15:31:30.671Z,9.07
2023-01-29T15:33:57.243Z,10.00
2023-01-29T15:36:25.813Z,12.10
2023-01-29T15:39:15.499Z,10.90
2023-01-29T15:41:42.645Z,9.97
2023-01-29T15:44:21.112Z,9.03
2023-01-29T15:46:55.944Z,8.33
2023-01-29T15:49:30.407Z,8.33
2023-01-29T15:51:58.975Z,9.23
2023-01-29T15:54:26.629Z,9.47
2023-01-29T15:56:53.934Z,9.07
2023-01-29T15:59:26.431Z,8.87
2023-01-29T16:01:56.344Z,9.13
2023-01-29T16:04:31.343Z,8.67
2023-01-29T16:06:59.075Z,7.40
2023-01-29T16:09:26.502Z,8.40
2023-01-29T16:11:54.665Z,8.07
2023-01-29T16:14:23.206Z,8.70
2023-01-29T16:16:49.723Z,8.87
2023-01-29T16:19:29.457Z,9.60
2023-01-29T16:22:01.198Z,9.30
2023-01-29T16:24:28.534Z,9.30
2023-01-29T16:27:01.022Z,7.77
2023-01-29T16:29:32.008Z,7.90
2023-01-29T16:32:01.976Z,8.60
2023-01-29T16:34:45.457Z,6.90
2023-01-29T16:37:24.975Z,9.50
2023-01-29T16:39:55.296Z,8.80
2023-01-29T16:42:29.441Z,12.47
2023-01-29T16:45:01.301Z,8.83
2023-01-29T16:47:41.361Z,7.60
2023-01-29T16:50:36.186Z,8.03
2023-01-29T16:53:18.148Z,7.10
2023-01-29T16:55:46.921Z,8.53
2023-01-29T16:58:16.441Z,7.47
2023-01-29T17:00:45.254Z,13.77
2023-01-29T17:03:12.637Z,13.93
2023-01-29T17:05:39.064Z,11.13
2023-01-29T17:08:06.205Z,12.40
2023-01-29T17:10:33.115Z,21.83
2023-01-29T17:13:08.175Z,16.83
2023-01-29T17:15:45.839Z,12.80
2023-01-29T17:18:23.916Z,14.83
2023-01-29T17:20:50.814Z,20.23
2023-01-29T17:23:17.262Z,20.63
2023-01-29T17:25:44.464Z,11.60
2023-01-29T17:28:13.035Z,10.17
2023-01-29T17:30:39.524Z,10.60
2023-01-29T17:33:11.574Z,9.70
2023-01-29T17:35:37.971Z,8.53
2023-01-29T17:38:07.447Z,9.23
2023-01-29T17:40:42.575Z,8.83
2023-01-29T17:43:11.634Z,8.77
2023-01-29T17:45:39.046Z,8.80
2023-01-29T17:48:14.631Z,9.67
2023-01-29T17:50:48.275Z,9.13
2023-01-29T17:53:15.728Z,11.90
2023-01-29T17:55:42.232Z,11.47
2023-01-29T17:58:23.046Z,8.20
2023-01-29T18:00:49.728Z,9.07
2023-01-29T18:03:16.375Z,10.03
2023-01-29T18:05:44.069Z,9.53
2023-01-29T18:08:19.656Z,9.10
2023-01-29T18:10:46.557Z,7.80
2023-01-29T18:13:13.693Z,10.80
2023-01-29T18:15:40.120Z,6.03
2023-01-29T18:18:06.587Z,6.43
2023-01-29T18:20:36.641Z,5.90
2023-01-29T18:23:04.267Z,6.47
2023-01-29T18:25:31.150Z,5.97
2023-01-29T18:27:57.796Z,6.53
2023-01-29T18:30:24.350Z,6.20
2023-01-29T18:32:50.918Z,6.50
2023-01-29T18:35:17.683Z,7.27
2023-01-29T18:37:44.559Z,5.93
2023-01-29T18:40:17.010Z,6.60
2023-01-29T18:42:47.186Z,6.70
2023-01-29T18:45:14.052Z,6.27
2023-01-29T18:47:40.603Z,6.60
2023-01-29T18:50:07.967Z,6.40
2023-01-29T18:52:34.491Z,6.90
2023-01-29T18:55:03.824Z,6.37
2023-01-29T18:58:26.771Z,6.70
2023-01-29T19:00:16.959Z,6.67
2023-01-29T19:02:45.147Z,6.57
2023-01-29T19:05:11.668Z,6.93
2023-01-29T19:07:38.106Z,7.33
2023-01-29T19:10:06.798Z,7.10
2023-01-29T19:12:34.294Z,7.07
2023-01-29T19:15:00.949Z,7.30
2023-01-29T19:17:27.714Z,7.97
2023-01-29T19:19:56.419Z,6.87
2023-01-29T19:22:22.931Z,7.23
2023-01-29T19:24:49.360Z,7.97
2023-01-29T19:27:15.773Z,8.10
2023-01-29T19:29:42.387Z,8.07
2023-01-29T19:32:08.945Z,7.20
2023-01-29T19:34:35.366Z,7.27
2023-01-29T19:37:01.798Z,6.77
2023-01-29T19:39:33.599Z,6.90
2023-01-29T19:42:01.063Z,7.70
2023-01-29T19:44:27.897Z,7.03
2023-01-29T19:46:54.339Z,7.87
2023-01-29T19:49:20.756Z,7.13
2023-01-29T19:51:47.296Z,7.40
2023-01-29T19:54:13.721Z,6.97
2023-01-29T19:56:40.148Z,7.17
2023-01-29T19:59:07.333Z,7.50
2023-01-29T20:01:33.854Z,7.70
2023-01-29T20:04:00.305Z,7.97
2023-01-29T20:06:30.879Z,7.60
2023-01-29T20:08:57.858Z,8.20
2023-01-29T20:11:24.788Z,7.83
2023-01-29T20:13:52.133Z,8.57
2023-01-29T20:16:19.230Z,7.50
2023-01-29T20:18:45.754Z,7.67
2023-01-29T20:21:14.823Z,7.33
2023-01-29T20:23:42.197Z,7.87
2023-01-29T20:26:14.487Z,6.90
2023-01-29T20:28:41.566Z,7.70
2023-01-29T20:31:09.327Z,8.17
2023-01-29T20:33:39.013Z,7.20
2023-01-29T20:36:09.002Z,6.93
2023-01-29T20:38:35.877Z,6.80
2023-01-29T20:41:13.465Z,6.93
2023-01-29T20:43:40.444Z,6.97
2023-01-29T20:46:06.885Z,6.67
2023-01-29T20:48:33.582Z,7.47
2023-01-29T20:51:08.025Z,7.50
2023-01-29T20:53:34.973Z,7.13
2023-01-29T20:56:04.193Z,7.30
2023-01-29T20:58:30.866Z,7.20
2023-01-29T21:00:57.889Z,7.90
2023-01-29T21:03:25.602Z,7.40
2023-01-29T21:05:52.315Z,7.50
2023-01-29T21:08:18.767Z,7.60
2023-01-29T21:10:45.715Z,7.80
2023-01-29T21:13:12.308Z,7.67
2023-01-29T21:15:38.780Z,7.73
2023-01-29T21:18:06.483Z,7.73
2023-01-29T21:20:32.943Z,8.07
2023-01-29T21:23:00.995Z,8.07
2023-01-29T21:25:27.522Z,7.87
2023-01-29T21:27:53.974Z,7.70
2023-01-29T21:30:20.657Z,8.10
2023-01-29T21:32:47.438Z,8.40
2023-01-29T21:35:14.964Z,8.57
2023-01-29T21:37:41.917Z,10.10
2023-01-29T21:40:09.277Z,8.97
2023-01-29T21:42:54.278Z,9.43
2023-01-29T21:45:20.746Z,9.60
2023-01-29T21:47:47.336Z,10.57
2023-01-29T21:50:14.033Z,9.90
2023-01-29T21:52:40.547Z,10.13
2023-01-29T21:55:07.350Z,10.57
2023-01-29T21:57:33.740Z,10.77
2023-01-29T22:00:00.167Z,10.57
2023-01-29T22:02:27.648Z,10.40
2023-01-29T22:05:08.927Z,11.70
2023-01-29T22:07:42.709Z,11.73
2023-01-29T22:10:10.218Z,11.93
2023-01-29T22:12:36.713Z,12.00
2023-01-29T22:15:03.283Z,12.03
2023-01-29T22:17:29.689Z,11.77
2023-01-29T22:19:56.149Z,11.83
2023-01-29T22:22:22.841Z,12.27
2023-01-29T22:24:50.775Z,12.23
2023-01-29T22:27:17.173Z,11.73
2023-01-29T22:29:43.628Z,12.00
2023-01-29T22:32:10.645Z,11.17
2023-01-29T22:34:37.149Z,11.47
2023-01-29T22:37:03.567Z,11.73
2023-01-29T22:39:30.006Z,12.20
2023-01-29T22:41:56.413Z,11.40
2023-01-29T22:44:22.851Z,11.40
2023-01-29T22:46:49.502Z,12.43
2023-01-29T22:49:15.942Z,11.57
2023-01-29T22:51:42.341Z,11.07
2023-01-29T22:54:08.788Z,12.13
2023-01-29T22:56:35.206Z,11.93
2023-01-29T22:59:01.736Z,11.23
2023-01-29T23:01:30.176Z,12.30
2023-01-29T23:03:56.803Z,10.73
2023-01-29T23:06:23.659Z,11.27
2023-01-29T23:08:50.566Z,12.00
2023-01-29T23:11:20.410Z,11.80
2023-01-29T23:13:54.589Z,10.83
2023-01-29T23:16:23.145Z,11.20
2023-01-29T23:18:51.796Z,11.43
2023-01-29T23:21:18.471Z,11.60
2023-01-29T23:23:45.295Z,11.20
2023-01-29T23:26:31.871Z,11.00
2023-01-29T23:28:58.503Z,10.40
2023-01-29T23:31:25.306Z,10.60
2023-01-29T23:33:51.795Z,10.50
2023-01-29T23:36:18.206Z,10.50
2023-01-29T23:38:44.627Z,10.70
2023-01-29T23:41:11.032Z,11.63
2023-01-29T23:43:37.537Z,10.60
2023-01-29T23:46:03.965Z,10.83
2023-01-29T23:48:30.377Z,9.40
2023-01-29T23:50:56.813Z,10.70
2023-01-29T23:53:23.239Z,10.30
2023-01-29T23:56:00.976Z,9.43
2023-01-29T23:58:28.294Z,10.53
